Time;durP1;ratioP1;P1;durP2;ratioP2;P2;SDS_P1;SDS_P2;PMS_P1;PMS_P2;Temp;Humidity;BMP_temperature;BMP_pressure;BME280_temperature;BME280_humidity;BME280_pressure;Samples;Min_cycle;Max_cycle;Signal;HPM_P1;HPM_P2
2021/01/12 00:00:22;;;;;;;27.07;15.60;;;2.00;89.00;;;;;;5013264;28;20208;-64
2021/01/12 00:02:51;;;;;;;22.80;16.67;;;2.00;89.00;;;;;;5008822;28;20226;-65
2021/01/12 00:05:18;;;;;;;22.77;15.47;;;2.00;89.00;;;;;;5013520;28;20216;-65
2021/01/12 00:07:45;;;;;;;23.33;15.73;;;2.00;89.00;;;;;;5012992;28;20232;-65
2021/01/12 00:10:12;;;;;;;23.60;16.30;;;2.00;89.00;;;;;;5028134;28;20218;-65
2021/01/12 00:12:39;;;;;;;21.43;15.37;;;1.90;88.90;;;;;;5008988;28;20580;-65
2021/01/12 00:15:07;;;;;;;23.10;15.87;;;1.90;88.90;;;;;;5013518;28;20222;-65
2021/01/12 00:17:34;;;;;;;21.53;15.30;;;1.90;88.90;;;;;;5012340;28;20247;-64
2021/01/12 00:20:02;;;;;;;23.43;17.03;;;1.90;88.90;;;;;;5012560;28;20237;-64
2021/01/12 00:22:28;;;;;;;22.27;16.10;;;1.80;88.90;;;;;;5012300;28;20212;-64
2021/01/12 00:24:55;;;;;;;22.40;15.00;;;1.80;88.90;;;;;;5013256;28;20640;-64
2021/01/12 00:27:23;;;;;;;22.57;15.93;;;1.80;89.00;;;;;;5012865;28;20240;-65
2021/01/12 00:29:50;;;;;;;21.77;15.03;;;1.70;88.90;;;;;;5004394;28;20207;-64
2021/01/12 00:32:22;;;;;;;22.57;16.67;;;1.70;88.90;;;;;;5013058;28;20204;-64
2021/01/12 00:34:49;;;;;;;20.80;15.10;;;1.70;88.90;;;;;;5010803;28;20204;-64
2021/01/12 00:37:20;;;;;;;25.93;18.13;;;1.70;88.90;;;;;;5012685;28;20234;-65
2021/01/12 00:39:48;;;;;;;22.70;15.60;;;1.70;88.90;;;;;;5027697;28;20215;-64
2021/01/12 00:42:15;;;;;;;23.43;15.50;;;1.70;88.90;;;;;;5012371;28;20208;-65
2021/01/12 00:44:42;;;;;;;24.70;16.03;;;1.70;88.90;;;;;;5012618;28;20212;-65
2021/01/12 00:47:09;;;;;;;27.67;15.93;;;1.60;88.80;;;;;;5012403;28;20203;-64
2021/01/12 00:49:36;;;;;;;22.57;15.67;;;1.60;88.80;;;;;;5011835;28;20211;-65
2021/01/12 00:52:10;;;;;;;24.70;16.87;;;1.60;88.90;;;;;;5010726;28;20200;-65
2021/01/12 00:54:37;;;;;;;23.27;16.60;;;1.60;88.90;;;;;;5012351;28;20222;-65
2021/01/12 00:57:04;;;;;;;22.23;16.00;;;1.60;88.90;;;;;;5012106;28;20215;-65
2021/01/12 00:59:32;;;;;;;22.80;15.47;;;1.60;88.90;;;;;;5027599;28;20215;-65
2021/01/12 01:02:00;;;;;;;27.60;15.53;;;1.50;88.80;;;;;;5012277;28;20219;-65
2021/01/12 01:04:27;;;;;;;21.83;15.13;;;1.50;88.80;;;;;;5012438;28;20211;-65
2021/01/12 01:06:54;;;;;;;21.17;15.73;;;1.50;88.80;;;;;;5011964;28;20211;-65
2021/01/12 01:09:21;;;;;;;26.37;15.67;;;1.50;88.80;;;;;;5010574;28;20215;-64
2021/01/12 01:11:48;;;;;;;23.53;15.77;;;1.40;88.80;;;;;;5006252;28;20207;-65
2021/01/12 01:14:16;;;;;;;22.57;15.50;;;1.40;88.70;;;;;;5010434;28;20212;-65
2021/01/12 01:16:44;;;;;;;22.93;14.60;;;1.40;88.70;;;;;;5012208;28;20207;-64
2021/01/12 01:19:11;;;;;;;22.50;14.57;;;1.30;88.60;;;;;;5011777;28;20727;-65
2021/01/12 01:21:38;;;;;;;21.40;15.27;;;1.30;88.70;;;;;;5012226;28;20275;-65
2021/01/12 01:24:08;;;;;;;26.03;15.67;;;1.30;88.60;;;;;;5012089;28;20211;-65
2021/01/12 01:26:35;;;;;;;19.53;14.60;;;1.30;88.60;;;;;;5010430;28;20299;-65
2021/01/12 01:29:03;;;;;;;25.17;15.07;;;1.20;88.60;;;;;;5027927;28;20236;-65
2021/01/12 01:31:38;;;;;;;25.23;15.37;;;1.20;88.70;;;;;;5011827;28;20335;-65
2021/01/12 01:34:05;;;;;;;20.03;14.23;;;1.20;88.70;;;;;;5016528;28;20207;-64
2021/01/12 01:36:31;;;;;;;23.57;14.73;;;1.10;88.60;;;;;;5014952;28;20255;-66
2021/01/12 01:38:58;;;;;;;23.57;14.93;;;1.00;89.30;;;;;;5015903;28;20208;-64
2021/01/12 01:41:24;;;;;;;26.67;14.70;;;1.00;88.70;;;;;;5016032;28;20261;-65
2021/01/12 01:43:51;;;;;;;21.47;14.43;;;1.00;88.80;;;;;;5016406;28;20246;-65
2021/01/12 01:46:18;;;;;;;21.83;13.43;;;0.90;88.80;;;;;;5010813;28;20212;-65
2021/01/12 01:48:47;;;;;;;23.13;14.87;;;0.90;88.80;;;;;;5017906;28;20243;-64
2021/01/12 01:51:15;;;;;;;22.27;14.73;;;0.90;88.80;;;;;;5014544;28;20215;-64
2021/01/12 01:53:42;;;;;;;20.50;14.10;;;0.90;88.90;;;;;;5013538;28;20221;-65
2021/01/12 01:56:08;;;;;;;21.53;13.93;;;0.80;88.80;;;;;;5016074;28;20207;-64
2021/01/12 01:58:39;;;;;;;20.83;13.80;;;0.80;88.80;;;;;;5015580;28;20309;-65
2021/01/12 02:01:07;;;;;;;26.53;14.43;;;0.80;88.90;;;;;;5015681;28;20648;-64
2021/01/12 02:03:48;;;;;;;22.03;14.33;;;0.80;88.90;;;;;;5014551;28;20243;-64
2021/01/12 02:06:32;;;;;;;18.87;13.17;;;0.80;88.90;;;;;;5015929;28;20221;-64
2021/01/12 02:09:20;;;;;;;21.20;14.00;;;0.70;89.00;;;;;;5014860;28;20277;-65
2021/01/12 02:12:09;;;;;;;21.60;13.93;;;0.70;89.00;;;;;;5014945;28;20227;-65
2021/01/12 02:14:39;;;;;;;20.37;13.53;;;0.60;89.00;;;;;;5012103;28;20219;-65
2021/01/12 02:17:08;;;;;;;19.67;13.93;;;0.60;89.10;;;;;;5015297;28;20204;-65
2021/01/12 02:19:37;;;;;;;22.07;14.07;;;0.60;89.10;;;;;;5015022;28;20211;-65
2021/01/12 02:22:06;;;;;;;19.20;14.20;;;0.60;89.10;;;;;;5015210;28;20211;-64
2021/01/12 02:24:36;;;;;;;21.70;14.60;;;0.50;89.00;;;;;;5029870;28;20263;-64
2021/01/12 02:27:05;;;;;;;20.30;14.43;;;0.50;89.10;;;;;;5030756;28;20560;-64
2021/01/12 02:29:33;;;;;;;19.87;13.63;;;0.50;89.10;;;;;;5014799;28;20236;-64
2021/01/12 02:32:00;;;;;;;21.87;14.50;;;0.50;89.20;;;;;;5015387;28;20206;-64
2021/01/12 02:34:28;;;;;;;19.33;13.80;;;0.40;89.20;;;;;;5015040;28;20298;-65
2021/01/12 02:36:56;;;;;;;20.23;14.00;;;0.40;89.30;;;;;;5014527;28;20243;-65
2021/01/12 02:39:22;;;;;;;21.53;14.33;;;0.40;89.40;;;;;;5014794;28;20218;-65
2021/01/12 02:41:49;;;;;;;19.97;13.77;;;0.30;89.40;;;;;;5010373;28;20215;-65
2021/01/12 02:44:24;;;;;;;21.87;13.93;;;0.30;89.40;;;;;;5014542;28;20265;-65
2021/01/12 02:46:52;;;;;;;21.33;14.07;;;0.30;89.40;;;;;;5014001;28;20218;-65
2021/01/12 02:49:19;;;;;;;19.13;14.80;;;0.30;89.40;;;;;;5014359;28;20235;-65
2021/01/12 02:51:45;;;;;;;19.70;13.23;;;0.30;89.50;;;;;;5013603;28;20200;-65
2021/01/12 02:54:12;;;;;;;19.37;14.50;;;0.20;89.40;;;;;;5014073;28;20566;-65
2021/01/12 02:56:39;;;;;;;23.37;14.17;;;0.20;89.50;;;;;;5014329;28;20654;-65
2021/01/12 02:59:05;;;;;;;19.37;13.67;;;0.20;89.50;;;;;;5014780;28;20215;-65
2021/01/12 03:01:32;;;;;;;21.33;14.10;;;0.20;89.50;;;;;;5012898;28;20215;-64
2021/01/12 03:03:59;;;;;;;30.63;15.17;;;0.20;89.50;;;;;;5014445;28;20299;-65
2021/01/12 03:06:26;;;;;;;19.20;12.87;;;0.10;89.50;;;;;;5014034;28;20220;-65
2021/01/12 03:08:52;;;;;;;20.73;14.17;;;0.10;89.50;;;;;;5014296;28;20232;-64
2021/01/12 03:11:22;;;;;;;23.93;13.93;;;0.10;89.50;;;;;;5013702;28;20646;-65
2021/01/12 03:13:48;;;;;;;22.07;13.40;;;0.10;89.40;;;;;;5008649;28;20226;-65
2021/01/12 03:16:15;;;;;;;19.27;13.33;;;0.10;89.40;;;;;;5009750;28;20219;-64
2021/01/12 03:18:41;;;;;;;21.47;13.93;;;0.10;89.40;;;;;;5012467;28;20306;-64
2021/01/12 03:21:08;;;;;;;21.40;14.70;;;0.10;89.40;;;;;;5013751;28;20223;-64
2021/01/12 03:23:35;;;;;;;20.63;13.37;;;0.10;89.40;;;;;;5013519;28;20214;-64
2021/01/12 03:26:02;;;;;;;25.13;13.83;;;0.00;89.30;;;;;;5014333;28;20212;-65
2021/01/12 03:28:28;;;;;;;21.73;13.43;;;0.00;89.30;;;;;;5013740;28;20239;-64
2021/01/12 03:31:00;;;;;;;18.60;12.97;;;0.00;89.30;;;;;;5022477;28;20295;-64
2021/01/12 03:33:29;;;;;;;18.93;12.57;;;0.00;89.30;;;;;;5013958;28;20208;-64
2021/01/12 03:35:56;;;;;;;20.10;13.60;;;0.00;89.20;;;;;;5013375;28;20278;-65
2021/01/12 03:38:22;;;;;;;18.87;12.60;;;0.00;89.20;;;;;;5012827;28;20204;-64
2021/01/12 03:40:49;;;;;;;21.03;12.20;;;-0.10;89.10;;;;;;5013586;28;20273;-64
2021/01/12 03:43:15;;;;;;;17.57;12.17;;;-0.10;89.10;;;;;;5014222;28;20222;-64
2021/01/12 03:45:42;;;;;;;17.97;13.27;;;-0.10;89.10;;;;;;5013105;28;20216;-64
2021/01/12 03:48:09;;;;;;;17.10;11.53;;;-0.10;89.00;;;;;;5008138;28;20219;-64
2021/01/12 03:50:36;;;;;;;19.43;13.50;;;-0.10;89.00;;;;;;5012679;28;20208;-65
2021/01/12 03:53:03;;;;;;;20.10;13.73;;;-0.10;89.00;;;;;;5013299;28;20200;-64
2021/01/12 03:55:30;;;;;;;19.00;12.30;;;-0.10;89.00;;;;;;5012609;28;20204;-64
2021/01/12 03:57:56;;;;;;;20.43;12.23;;;-0.10;88.90;;;;;;5013311;28;20208;-65
2021/01/12 04:00:23;;;;;;;19.30;11.40;;;-0.20;88.90;;;;;;5013362;28;20212;-64
2021/01/12 04:02:50;;;;;;;19.63;12.13;;;-0.20;88.90;;;;;;5012899;28;20211;-64
2021/01/12 04:05:18;;;;;;;19.70;11.87;;;-0.20;89.00;;;;;;5028606;28;20208;-64
2021/01/12 04:07:45;;;;;;;20.07;13.10;;;-0.20;89.00;;;;;;5013042;28;20244;-64
2021/01/12 04:10:12;;;;;;;19.23;11.87;;;-0.20;88.90;;;;;;5013603;28;20235;-64
2021/01/12 04:12:39;;;;;;;18.93;12.30;;;-0.20;88.90;;;;;;5012442;28;20299;-64
2021/01/12 04:15:06;;;;;;;16.77;10.77;;;-0.30;88.80;;;;;;5012735;28;20204;-64
2021/01/12 04:17:33;;;;;;;17.10;10.83;;;-0.30;88.80;;;;;;5013336;28;20212;-64
2021/01/12 04:20:00;;;;;;;18.53;11.30;;;-0.30;88.70;;;;;;5012557;28;20200;-64
2021/01/12 04:22:26;;;;;;;17.83;11.10;;;-0.30;88.70;;;;;;5012522;28;20204;-64
2021/01/12 04:24:53;;;;;;;17.83;10.63;;;-0.30;88.70;;;;;;5013481;28;20223;-64
2021/01/12 04:27:20;;;;;;;17.13;11.13;;;-0.30;88.70;;;;;;5008882;28;20326;-64
2021/01/12 04:29:46;;;;;;;17.93;11.47;;;-0.30;88.60;;;;;;5013132;28;20548;-64
2021/01/12 04:32:13;;;;;;;17.47;11.63;;;-0.30;88.50;;;;;;5013218;28;20318;-64
2021/01/12 04:34:39;;;;;;;17.87;11.73;;;-0.30;88.50;;;;;;5011565;28;20212;-65
2021/01/12 04:37:06;;;;;;;21.33;12.70;;;-0.30;88.50;;;;;;5012227;28;20251;-64
2021/01/12 04:39:32;;;;;;;15.60;10.57;;;-0.30;88.50;;;;;;5011873;28;20218;-64
2021/01/12 04:41:59;;;;;;;21.17;11.60;;;-0.30;88.50;;;;;;5012319;28;20211;-64
2021/01/12 04:44:25;;;;;;;19.93;11.13;;;-0.30;88.40;;;;;;5012524;28;20216;-64
2021/01/12 04:46:52;;;;;;;21.50;11.80;;;-0.30;88.40;;;;;;5012965;28;20211;-65
2021/01/12 04:49:18;;;;;;;16.33;11.30;;;-0.40;88.40;;;;;;5006301;28;20680;-64
2021/01/12 04:51:45;;;;;;;17.70;11.00;;;-0.40;88.40;;;;;;5011517;28;20215;-65
2021/01/12 04:54:11;;;;;;;17.30;11.27;;;-0.40;88.50;;;;;;5013123;28;20212;-64
2021/01/12 04:56:38;;;;;;;19.40;11.27;;;-0.40;88.50;;;;;;5011746;28;20203;-64
2021/01/12 04:59:05;;;;;;;15.70;10.57;;;-0.40;88.40;;;;;;5006226;28;20640;-64
2021/01/12 05:01:32;;;;;;;15.93;10.70;;;-0.40;88.40;;;;;;5028781;28;20212;-64
2021/01/12 05:04:03;;;;;;;18.77;11.03;;;-0.40;88.40;;;;;;5012052;28;20212;-64
2021/01/12 05:06:30;;;;;;;17.67;10.53;;;-0.40;88.50;;;;;;5010729;28;20563;-64
2021/01/12 05:08:57;;;;;;;17.73;11.33;;;-0.40;88.50;;;;;;5010515;28;20246;-64
2021/01/12 05:11:29;;;;;;;15.27;10.50;;;-0.40;88.50;;;;;;5012428;28;20643;-64
2021/01/12 05:14:01;;;;;;;16.90;10.87;;;-0.40;88.50;;;;;;5012472;28;20215;-64
2021/01/12 05:16:28;;;;;;;17.13;10.63;;;-0.50;88.40;;;;;;5012778;28;20441;-64
2021/01/12 05:18:56;;;;;;;16.87;10.97;;;-0.50;88.40;;;;;;5013049;28;20212;-64
2021/01/12 05:21:25;;;;;;;18.00;10.90;;;-0.50;88.40;;;;;;5013063;28;20222;-64
2021/01/12 05:24:04;;;;;;;17.27;10.90;;;-0.50;88.40;;;;;;5011348;28;20644;-64
2021/01/12 05:26:37;;;;;;;19.93;11.33;;;-0.50;88.40;;;;;;5010482;28;20413;-64
2021/01/12 05:29:06;;;;;;;18.83;11.00;;;-0.50;88.30;;;;;;5028189;28;20626;-64
2021/01/12 05:31:37;;;;;;;21.53;12.60;;;-0.50;88.30;;;;;;5012581;28;20211;-64
2021/01/12 05:34:09;;;;;;;21.13;11.13;;;-0.50;88.30;;;;;;5028062;28;20218;-64
2021/01/12 05:36:53;;;;;;;19.93;11.47;;;-0.50;88.30;;;;;;5011830;28;20231;-64
2021/01/12 05:39:25;;;;;;;21.90;12.63;;;-0.50;88.30;;;;;;5011573;28;20232;-64
2021/01/12 05:41:57;;;;;;;20.00;12.67;;;-0.60;88.30;;;;;;5010532;28;20223;-65
2021/01/12 05:44:24;;;;;;;23.90;11.63;;;-0.50;88.30;;;;;;5027420;28;20655;-64
2021/01/12 05:46:53;;;;;;;17.90;11.83;;;-0.60;88.20;;;;;;5010211;28;20239;-64
2021/01/12 05:49:22;;;;;;;18.97;12.30;;;-0.60;88.20;;;;;;5012042;28;20241;-64
2021/01/12 05:51:50;;;;;;;22.27;12.10;;;-0.60;88.20;;;;;;5006052;28;20310;-64
2021/01/12 05:54:26;;;;;;;20.77;13.47;;;-0.60;88.30;;;;;;5012302;28;20203;-64
2021/01/12 05:56:56;;;;;;;20.23;13.03;;;-0.60;88.30;;;;;;5005490;28;20203;-64
2021/01/12 05:59:29;;;;;;;23.87;13.20;;;-0.60;88.30;;;;;;5012087;28;20218;-64
2021/01/12 06:02:00;;;;;;;23.00;13.03;;;-0.60;88.40;;;;;;5012493;28;20220;-64
2021/01/12 06:04:27;;;;;;;22.23;12.63;;;-0.70;88.30;;;;;;5009583;28;20682;-64
2021/01/12 06:06:56;;;;;;;16.07;11.37;;;-0.60;88.40;;;;;;5027495;28;20208;-64
2021/01/12 06:09:23;;;;;;;20.00;11.27;;;-0.60;88.30;;;;;;5011279;28;20681;-64
2021/01/12 06:11:54;;;;;;;17.93;12.03;;;-0.60;88.20;;;;;;5011626;28;20211;-64
2021/01/12 06:14:28;;;;;;;17.20;11.47;;;-0.60;88.20;;;;;;5011232;28;20884;-64
2021/01/12 06:16:56;;;;;;;18.43;11.53;;;-0.60;88.20;;;;;;5005007;28;20416;-64
2021/01/12 06:19:27;;;;;;;21.27;10.90;;;-0.60;88.10;;;;;;5015019;28;20216;-64
2021/01/12 06:21:54;;;;;;;18.60;11.97;;;-0.60;88.00;;;;;;5015076;28;20212;-64
2021/01/12 06:24:42;;;;;;;16.93;10.43;;;-0.60;87.90;;;;;;5014927;28;20220;-64
2021/01/12 06:27:18;;;;;;;19.33;10.73;;;-0.60;87.90;;;;;;5012192;28;20208;-64
2021/01/12 06:29:48;;;;;;;17.27;11.20;;;-0.60;87.80;;;;;;5031453;28;20248;-64
2021/01/12 06:32:23;;;;;;;23.07;11.47;;;-0.60;87.70;;;;;;5030365;28;20302;-64
2021/01/12 06:35:02;;;;;;;21.17;11.97;;;-0.50;87.70;;;;;;5006372;28;20227;-65
2021/01/12 06:37:38;;;;;;;21.60;11.93;;;-0.60;87.60;;;;;;5014637;28;20239;-65
2021/01/12 06:40:07;;;;;;;24.67;11.73;;;-0.60;87.50;;;;;;5015380;28;20584;-65
2021/01/12 06:42:34;;;;;;;18.40;11.77;;;-0.60;87.50;;;;;;5014383;28;20203;-65
2021/01/12 06:45:01;;;;;;;22.80;11.67;;;-0.50;87.50;;;;;;5020780;28;20204;-65
2021/01/12 06:47:31;;;;;;;20.47;10.93;;;-0.60;87.40;;;;;;5014152;28;20282;-65
2021/01/12 06:50:07;;;;;;;17.47;11.47;;;-0.50;87.50;;;;;;5014536;28;20709;-65
2021/01/12 06:52:48;;;;;;;21.00;12.03;;;-0.50;87.50;;;;;;5013887;28;20237;-65
2021/01/12 06:55:16;;;;;;;20.27;11.43;;;-0.60;87.50;;;;;;5014458;28;20210;-65
2021/01/12 06:57:45;;;;;;;16.67;11.13;;;-0.50;87.50;;;;;;5014476;28;20227;-65
2021/01/12 07:00:13;;;;;;;18.50;11.33;;;-0.50;87.40;;;;;;5014820;28;20634;-65
2021/01/12 07:02:40;;;;;;;20.90;12.27;;;-0.50;87.40;;;;;;5015300;28;20295;-65
2021/01/12 07:05:12;;;;;;;19.63;11.30;;;-0.50;87.40;;;;;;5014987;28;20232;-65
2021/01/12 07:07:42;;;;;;;18.23;11.63;;;-0.50;87.40;;;;;;5012970;28;20211;-65
2021/01/12 07:10:11;;;;;;;18.90;11.43;;;-0.50;87.40;;;;;;5015064;28;20550;-65
2021/01/12 07:12:39;;;;;;;23.07;11.53;;;-0.40;87.40;;;;;;5014206;28;20287;-65
2021/01/12 07:15:26;;;;;;;27.27;12.17;;;-0.40;87.40;;;;;;5030767;28;20277;-64
2021/01/12 07:17:54;;;;;;;21.90;11.43;;;-0.30;87.30;;;;;;5007569;28;20540;-64
2021/01/12 07:20:23;;;;;;;18.33;11.57;;;-0.20;87.10;;;;;;5029900;28;20204;-65
2021/01/12 07:23:10;;;;;;;19.93;12.33;;;-0.20;86.80;;;;;;5009092;28;20215;-64
2021/01/12 07:25:45;;;;;;;19.13;11.17;;;-0.10;86.50;;;;;;5010383;28;20214;-64
2021/01/12 07:28:14;;;;;;;17.57;12.33;;;0.00;86.20;;;;;;5013017;28;20241;-64
2021/01/12 07:30:44;;;;;;;19.97;11.40;;;0.10;86.10;;;;;;5012599;28;20222;-64
2021/01/12 07:33:17;;;;;;;18.33;12.03;;;0.20;86.00;;;;;;5013679;28;20671;-64
2021/01/12 07:35:50;;;;;;;25.10;12.40;;;0.30;85.80;;;;;;5014051;28;20247;-64
2021/01/12 07:38:19;;;;;;;19.60;12.13;;;0.40;85.60;;;;;;5025651;28;20629;-64
2021/01/12 07:40:46;;;;;;;19.83;11.83;;;0.40;85.30;;;;;;5013531;28;20250;-64
2021/01/12 07:43:18;;;;;;;20.97;11.70;;;0.50;85.10;;;;;;5012618;28;20220;-64
2021/01/12 07:45:46;;;;;;;25.90;12.20;;;0.60;84.90;;;;;;5013917;28;20223;-64
2021/01/12 07:48:14;;;;;;;19.53;11.33;;;0.70;84.80;;;;;;5013382;28;20681;-65
2021/01/12 07:50:44;;;;;;;18.50;11.80;;;0.70;84.50;;;;;;5029262;28;20303;-65
2021/01/12 07:53:11;;;;;;;24.00;12.20;;;0.80;84.40;;;;;;5013545;28;20212;-64
2021/01/12 07:55:43;;;;;;;19.47;11.40;;;0.90;84.20;;;;;;5013115;28;20208;-64
2021/01/12 07:58:10;;;;;;;19.17;11.47;;;1.00;84.00;;;;;;5013463;28;20212;-65
2021/01/12 08:00:37;;;;;;;14.73;10.37;;;1.10;83.70;;;;;;5029438;28;20228;-64
2021/01/12 08:03:04;;;;;;;18.80;11.77;;;1.20;83.50;;;;;;5028836;28;20216;-65
2021/01/12 08:05:31;;;;;;;17.50;12.33;;;1.30;83.30;;;;;;5011134;28;20215;-64
2021/01/12 08:08:01;;;;;;;20.57;12.17;;;1.40;82.90;;;;;;5013333;28;20215;-64
2021/01/12 08:10:29;;;;;;;16.50;11.13;;;1.50;82.40;;;;;;5028368;28;20576;-65
2021/01/12 08:13:12;;;;;;;18.13;12.33;;;1.60;82.00;;;;;;5013613;28;20258;-64
2021/01/12 08:15:43;;;;;;;16.93;10.70;;;1.70;81.70;;;;;;5012812;28;20218;-65
2021/01/12 08:18:19;;;;;;;19.23;11.70;;;1.80;81.50;;;;;;5013336;28;20303;-64
2021/01/12 08:20:52;;;;;;;15.60;11.27;;;1.90;81.10;;;;;;5028349;28;20203;-64
2021/01/12 08:23:19;;;;;;;16.70;11.33;;;2.10;80.80;;;;;;5013086;28;20212;-64
2021/01/12 08:25:46;;;;;;;18.27;11.60;;;2.20;80.50;;;;;;5011844;28;20208;-64
2021/01/12 08:28:13;;;;;;;19.37;10.97;;;2.30;80.50;;;;;;5008159;28;20267;-64
2021/01/12 08:30:44;;;;;;;16.70;11.13;;;2.30;80.30;;;;;;5012059;28;20219;-65
2021/01/12 08:33:27;;;;;;;22.27;11.57;;;2.40;80.20;;;;;;5013242;28;20207;-64
2021/01/12 08:35:59;;;;;;;18.80;11.70;;;2.40;80.00;;;;;;5010052;28;20247;-65
2021/01/12 08:38:27;;;;;;;15.20;10.97;;;2.50;79.90;;;;;;5012815;28;20235;-65
2021/01/12 08:40:55;;;;;;;18.10;12.33;;;2.50;79.70;;;;;;5012136;28;20204;-65
2021/01/12 08:43:28;;;;;;;17.03;11.43;;;2.60;79.70;;;;;;5011359;28;20215;-65
2021/01/12 08:46:03;;;;;;;19.93;12.17;;;2.60;79.50;;;;;;5008663;28;20250;-65
2021/01/12 08:48:30;;;;;;;21.13;10.90;;;2.60;79.60;;;;;;5012762;28;20223;-64
2021/01/12 08:50:57;;;;;;;18.87;11.63;;;2.60;79.60;;;;;;5012798;28;20262;-65
2021/01/12 08:53:29;;;;;;;16.07;11.27;;;2.70;79.50;;;;;;5027610;28;20673;-65
2021/01/12 08:56:05;;;;;;;19.40;11.83;;;2.80;79.40;;;;;;5012510;28;20602;-65
2021/01/12 08:58:32;;;;;;;16.23;11.40;;;2.90;79.10;;;;;;5012002;28;20231;-64
2021/01/12 09:01:03;;;;;;;17.97;12.50;;;3.00;78.70;;;;;;5011687;28;20215;-64
2021/01/12 09:03:31;;;;;;;20.93;12.70;;;3.10;78.60;;;;;;5011489;28;20310;-64
2021/01/12 09:05:58;;;;;;;19.80;12.53;;;3.10;78.30;;;;;;5012872;28;20211;-65
2021/01/12 09:08:26;;;;;;;18.23;11.10;;;3.20;78.80;;;;;;5012070;28;20293;-65
2021/01/12 09:10:53;;;;;;;19.30;11.73;;;3.30;78.00;;;;;;5008283;28;20214;-63
2021/01/12 09:13:29;;;;;;;20.57;11.87;;;3.40;77.80;;;;;;5013020;28;20295;-64
2021/01/12 09:15:55;;;;;;;22.07;12.77;;;3.50;77.70;;;;;;5008390;28;20555;-64
2021/01/12 09:18:24;;;;;;;17.80;12.27;;;3.60;77.50;;;;;;5013192;28;20215;-64
2021/01/12 09:21:01;;;;;;;22.23;12.43;;;3.60;77.30;;;;;;5010526;28;20216;-64
2021/01/12 09:23:29;;;;;;;18.70;11.60;;;3.70;77.20;;;;;;5009515;28;20737;-64
2021/01/12 09:26:01;;;;;;;18.23;12.27;;;3.80;77.00;;;;;;5028633;28;20212;-64
2021/01/12 09:28:41;;;;;;;21.07;12.73;;;3.90;76.70;;;;;;5010814;28;20236;-64
2021/01/12 09:31:13;;;;;;;21.47;11.80;;;4.00;76.10;;;;;;5012965;28;20213;-64
2021/01/12 09:33:45;;;;;;;17.60;11.60;;;4.10;75.70;;;;;;5011656;28;20212;-64
2021/01/12 09:36:13;;;;;;;20.17;11.50;;;4.20;75.50;;;;;;5011768;28;20302;-64
2021/01/12 09:38:48;;;;;;;16.83;10.77;;;4.30;75.30;;;;;;5003777;28;20529;-64
2021/01/12 09:41:16;;;;;;;23.40;12.83;;;4.30;75.10;;;;;;5007456;28;20207;-64
2021/01/12 09:43:43;;;;;;;21.17;11.47;;;4.40;74.90;;;;;;5028122;28;20231;-64
2021/01/12 09:46:10;;;;;;;22.97;12.47;;;4.40;75.10;;;;;;5011400;28;20219;-64
2021/01/12 09:48:38;;;;;;;19.77;13.17;;;4.40;74.30;;;;;;5011840;28;20242;-64
2021/01/12 09:51:06;;;;;;;20.70;12.67;;;4.40;74.30;;;;;;5023851;28;20287;-64
2021/01/12 09:53:32;;;;;;;17.70;12.13;;;4.40;74.30;;;;;;5014589;28;20207;-64
2021/01/12 09:56:01;;;;;;;16.67;11.37;;;4.40;74.30;;;;;;5013335;28;20614;-64
2021/01/12 09:58:28;;;;;;;16.33;11.93;;;4.50;74.20;;;;;;5016216;28;20204;-64
2021/01/12 10:00:55;;;;;;;19.20;12.37;;;4.70;74.20;;;;;;5015433;28;20226;-64
2021/01/12 10:03:22;;;;;;;20.10;12.60;;;4.70;74.00;;;;;;5015652;28;20220;-64
2021/01/12 10:05:49;;;;;;;18.03;12.53;;;4.80;73.80;;;;;;5007045;28;20215;-64
2021/01/12 10:08:15;;;;;;;15.93;11.87;;;4.80;73.60;;;;;;5029949;28;20564;-64
2021/01/12 10:10:42;;;;;;;18.73;11.70;;;4.80;73.50;;;;;;5015868;28;20216;-64
2021/01/12 10:13:09;;;;;;;17.30;11.70;;;4.90;73.50;;;;;;5015388;28;20590;-64
2021/01/12 10:15:38;;;;;;;17.50;11.80;;;5.00;73.10;;;;;;5014966;28;20545;-64
2021/01/12 10:18:06;;;;;;;20.50;12.23;;;5.10;73.00;;;;;;5031407;28;20291;-64
2021/01/12 10:20:33;;;;;;;20.17;12.67;;;5.10;72.80;;;;;;5029978;28;20216;-64
2021/01/12 10:22:59;;;;;;;17.60;11.60;;;5.00;73.00;;;;;;5015790;28;20214;-64
2021/01/12 10:25:27;;;;;;;15.40;11.03;;;4.90;72.20;;;;;;5014584;28;20595;-64
2021/01/12 10:27:56;;;;;;;16.17;11.13;;;4.80;72.50;;;;;;5007986;28;20219;-64
2021/01/12 10:30:23;;;;;;;18.23;11.90;;;4.70;72.50;;;;;;5014587;28;20600;-64
2021/01/12 10:32:49;;;;;;;17.30;11.53;;;4.70;72.50;;;;;;5015096;28;20663;-64
2021/01/12 10:35:17;;;;;;;16.67;11.67;;;4.80;72.20;;;;;;5015760;28;20557;-63
2021/01/12 10:37:44;;;;;;;15.63;11.17;;;4.90;71.50;;;;;;5029464;28;20323;-63
2021/01/12 10:40:12;;;;;;;16.40;11.53;;;4.90;71.60;;;;;;5014996;28;20318;-63
2021/01/12 10:42:40;;;;;;;20.23;12.27;;;4.90;70.60;;;;;;5014266;28;20212;-63
2021/01/12 10:45:09;;;;;;;20.87;12.17;;;4.90;70.10;;;;;;5014994;28;20244;-63
2021/01/12 10:47:43;;;;;;;19.33;13.33;;;4.90;70.00;;;;;;5030554;28;20215;-63
2021/01/12 10:50:14;;;;;;;17.30;12.53;;;4.90;70.50;;;;;;5008934;28;20234;-63
2021/01/12 10:52:41;;;;;;;19.87;11.90;;;5.00;71.00;;;;;;5014529;28;20235;-63
2021/01/12 10:55:09;;;;;;;19.10;12.33;;;5.10;70.90;;;;;;5014319;28;20211;-63
2021/01/12 10:57:36;;;;;;;18.70;12.53;;;5.30;70.80;;;;;;5014079;28;20676;-63
2021/01/12 11:00:07;;;;;;;19.47;12.33;;;5.50;70.50;;;;;;5014276;28;20290;-63
2021/01/12 11:02:34;;;;;;;18.90;13.37;;;5.50;69.90;;;;;;5015264;28;20221;-63
2021/01/12 11:05:01;;;;;;;18.67;13.23;;;5.60;69.90;;;;;;5014454;28;20203;-63
2021/01/12 11:07:31;;;;;;;18.07;12.93;;;5.60;69.90;;;;;;5014171;28;20573;-63
2021/01/12 11:09:59;;;;;;;22.70;12.20;;;5.70;69.00;;;;;;5013366;28;20335;-63
2021/01/12 11:12:26;;;;;;;23.37;12.93;;;5.70;68.90;;;;;;5012870;28;20228;-63
2021/01/12 11:14:55;;;;;;;21.33;14.30;;;5.60;68.90;;;;;;5014633;28;20212;-63
2021/01/12 11:17:22;;;;;;;20.77;13.47;;;5.50;69.40;;;;;;5013843;28;20196;-63
2021/01/12 11:19:50;;;;;;;18.20;12.00;;;5.50;69.70;;;;;;5021911;28;20221;-63
2021/01/12 11:22:26;;;;;;;20.17;12.63;;;5.50;69.80;;;;;;5011658;28;20208;-63
2021/01/12 11:24:55;;;;;;;22.73;13.83;;;5.50;69.90;;;;;;5005704;28;20667;-62
2021/01/12 11:27:22;;;;;;;22.33;13.27;;;5.70;70.10;;;;;;5014047;28;20214;-63
2021/01/12 11:29:49;;;;;;;18.77;13.17;;;5.80;69.70;;;;;;5012731;28;20671;-63
2021/01/12 11:32:16;;;;;;;18.13;12.47;;;5.90;68.80;;;;;;5013686;28;20207;-63
2021/01/12 11:34:43;;;;;;;19.20;13.13;;;6.00;68.20;;;;;;5014611;28;20219;-63
2021/01/12 11:37:10;;;;;;;19.07;13.07;;;6.10;68.20;;;;;;5013145;28;20232;-63
2021/01/12 11:39:38;;;;;;;20.43;14.57;;;6.20;67.90;;;;;;5013964;28;20208;-63
2021/01/12 11:42:12;;;;;;;20.80;14.13;;;6.30;67.80;;;;;;5013447;28;20226;-63
2021/01/12 11:44:40;;;;;;;23.63;15.13;;;6.40;67.70;;;;;;5026498;28;20210;-63
2021/01/12 11:47:07;;;;;;;21.63;13.90;;;6.50;67.60;;;;;;5010142;28;20210;-63
2021/01/12 11:49:34;;;;;;;20.37;14.37;;;6.60;67.30;;;;;;5011447;28;20525;-63
2021/01/12 11:52:06;;;;;;;19.33;13.90;;;6.70;66.60;;;;;;5013378;28;20207;-63
2021/01/12 11:54:33;;;;;;;21.63;14.40;;;6.70;66.10;;;;;;5013280;28;20211;-63
2021/01/12 11:57:00;;;;;;;20.90;14.33;;;6.80;66.70;;;;;;5013612;28;20208;-63
2021/01/12 11:59:29;;;;;;;23.80;14.50;;;6.70;65.70;;;;;;5013004;28;20246;-63
2021/01/12 12:01:57;;;;;;;18.97;13.57;;;6.70;66.30;;;;;;5013310;28;20227;-63
2021/01/12 12:04:25;;;;;;;19.20;13.17;;;6.80;66.80;;;;;;5028279;28;20219;-63
2021/01/12 12:07:03;;;;;;;20.17;14.23;;;6.90;66.70;;;;;;5012919;28;20226;-63
2021/01/12 12:09:31;;;;;;;25.90;15.00;;;7.10;66.60;;;;;;5011589;28;20231;-63
2021/01/12 12:11:59;;;;;;;24.37;13.83;;;7.10;66.50;;;;;;5009577;28;20196;-63
2021/01/12 12:14:27;;;;;;;22.47;14.60;;;7.10;65.50;;;;;;5013098;28;20221;-63
2021/01/12 12:16:57;;;;;;;21.10;14.67;;;7.10;66.30;;;;;;5011827;28;20610;-63
2021/01/12 12:19:30;;;;;;;22.70;14.97;;;7.00;64.50;;;;;;5013034;28;20618;-63
2021/01/12 12:21:58;;;;;;;25.17;15.87;;;6.90;64.50;;;;;;5013135;28;20238;-63
2021/01/12 12:24:31;;;;;;;24.87;14.53;;;6.90;65.40;;;;;;5028034;28;20215;-63
2021/01/12 12:27:00;;;;;;;22.63;16.23;;;7.00;65.90;;;;;;5013265;28;20208;-63
2021/01/12 12:29:27;;;;;;;27.03;15.30;;;7.00;66.10;;;;;;5011395;28;20230;-63
2021/01/12 12:31:56;;;;;;;23.93;14.87;;;7.10;66.10;;;;;;5013200;28;20295;-63
2021/01/12 12:34:24;;;;;;;23.83;16.03;;;7.20;65.90;;;;;;5013266;28;20520;-63
2021/01/12 12:36:51;;;;;;;25.77;16.83;;;7.30;65.70;;;;;;5005371;28;20227;-63
2021/01/12 12:39:18;;;;;;;24.47;16.57;;;7.30;65.40;;;;;;5006170;28;20671;-63
2021/01/12 12:41:45;;;;;;;24.90;15.73;;;7.40;65.50;;;;;;5011117;28;20685;-63